sensor_id;sensor_type;location;lat;lon;timestamp;P1;durP1;ratioP1;P2;durP2;ratioP2
18210;SDS011;9231;48.852;9.882;2022-12-18T00:01:17;14.87;;;9.93;;
18210;SDS011;9231;48.852;9.882;2022-12-18T00:03:44;13.30;;;8.97;;
18210;SDS011;9231;48.852;9.882;2022-12-18T00:06:11;14.03;;;9.90;;
18210;SDS011;9231;48.852;9.882;2022-12-18T00:08:40;13.07;;;9.73;;
18210;SDS011;9231;48.852;9.882;2022-12-18T00:11:06;13.90;;;9.63;;
18210;SDS011;9231;48.852;9.882;2022-12-18T00:13:33;13.10;;;9.27;;
18210;SDS011;9231;48.852;9.882;2022-12-18T00:16:01;13.53;;;9.10;;
18210;SDS011;9231;48.852;9.882;2022-12-18T00:18:27;13.40;;;9.23;;
18210;SDS011;9231;48.852;9.882;2022-12-18T00:20:54;15.90;;;10.23;;
18210;SDS011;9231;48.852;9.882;2022-12-18T00:23:24;15.50;;;10.40;;
18210;SDS011;9231;48.852;9.882;2022-12-18T00:25:51;14.23;;;9.63;;
18210;SDS011;9231;48.852;9.882;2022-12-18T00:28:18;15.00;;;10.50;;
18210;SDS011;9231;48.852;9.882;2022-12-18T00:30:44;16.37;;;11.30;;
18210;SDS011;9231;48.852;9.882;2022-12-18T00:33:11;15.67;;;10.20;;
18210;SDS011;9231;48.852;9.882;2022-12-18T00:35:37;17.03;;;11.30;;
18210;SDS011;9231;48.852;9.882;2022-12-18T00:38:04;15.83;;;10.60;;
18210;SDS011;9231;48.852;9.882;2022-12-18T00:40:31;14.33;;;10.60;;
18210;SDS011;9231;48.852;9.882;2022-12-18T00:42:59;15.17;;;9.67;;
18210;SDS011;9231;48.852;9.882;2022-12-18T00:45:25;15.20;;;10.47;;
18210;SDS011;9231;48.852;9.882;2022-12-18T00:47:52;16.73;;;10.37;;
18210;SDS011;9231;48.852;9.882;2022-12-18T00:50:18;14.30;;;9.70;;
18210;SDS011;9231;48.852;9.882;2022-12-18T00:52:45;14.17;;;10.03;;
18210;SDS011;9231;48.852;9.882;2022-12-18T00:55:11;15.70;;;10.57;;
18210;SDS011;9231;48.852;9.882;2022-12-18T00:57:38;16.83;;;10.97;;
18210;SDS011;9231;48.852;9.882;2022-12-18T01:00:06;15.83;;;10.63;;
18210;SDS011;9231;48.852;9.882;2022-12-18T01:02:34;13.40;;;9.90;;
18210;SDS011;9231;48.852;9.882;2022-12-18T01:05:00;14.07;;;10.13;;
18210;SDS011;9231;48.852;9.882;2022-12-18T01:07:27;15.13;;;10.53;;
18210;SDS011;9231;48.852;9.882;2022-12-18T01:09:53;14.20;;;10.60;;
18210;SDS011;9231;48.852;9.882;2022-12-18T01:12:20;14.40;;;9.87;;
18210;SDS011;9231;48.852;9.882;2022-12-18T01:14:46;15.27;;;10.13;;
18210;SDS011;9231;48.852;9.882;2022-12-18T01:17:14;15.50;;;10.77;;
18210;SDS011;9231;48.852;9.882;2022-12-18T01:19:40;16.20;;;10.60;;
18210;SDS011;9231;48.852;9.882;2022-12-18T01:22:07;13.93;;;9.43;;
18210;SDS011;9231;48.852;9.882;2022-12-18T01:24:33;13.57;;;9.90;;
18210;SDS011;9231;48.852;9.882;2022-12-18T01:27:00;17.63;;;10.63;;
18210;SDS011;9231;48.852;9.882;2022-12-18T01:29:26;15.07;;;9.97;;
18210;SDS011;9231;48.852;9.882;2022-12-18T01:31:54;15.63;;;10.43;;
18210;SDS011;9231;48.852;9.882;2022-12-18T01:34:22;15.27;;;10.20;;
18210;SDS011;9231;48.852;9.882;2022-12-18T01:36:48;13.87;;;10.13;;
18210;SDS011;9231;48.852;9.882;2022-12-18T01:39:17;14.50;;;10.00;;
18210;SDS011;9231;48.852;9.882;2022-12-18T01:41:44;14.63;;;9.33;;
18210;SDS011;9231;48.852;9.882;2022-12-18T01:47:13;13.47;;;9.57;;
18210;SDS011;9231;48.852;9.882;2022-12-18T01:49:43;14.70;;;10.30;;
18210;SDS011;9231;48.852;9.882;2022-12-18T01:52:09;12.57;;;9.53;;
18210;SDS011;9231;48.852;9.882;2022-12-18T01:54:35;13.80;;;9.60;;
18210;SDS011;9231;48.852;9.882;2022-12-18T01:57:02;13.03;;;9.03;;
18210;SDS011;9231;48.852;9.882;2022-12-18T01:59:28;14.43;;;10.00;;
18210;SDS011;9231;48.852;9.882;2022-12-18T02:01:55;13.60;;;9.40;;
18210;SDS011;9231;48.852;9.882;2022-12-18T02:04:23;14.23;;;9.67;;
18210;SDS011;9231;48.852;9.882;2022-12-18T02:06:52;13.83;;;9.77;;
18210;SDS011;9231;48.852;9.882;2022-12-18T02:09:22;13.37;;;9.50;;
18210;SDS011;9231;48.852;9.882;2022-12-18T02:11:52;12.93;;;9.47;;
18210;SDS011;9231;48.852;9.882;2022-12-18T02:14:21;11.97;;;8.90;;
18210;SDS011;9231;48.852;9.882;2022-12-18T02:16:52;12.67;;;8.77;;
18210;SDS011;9231;48.852;9.882;2022-12-18T02:19:23;11.70;;;8.70;;
18210;SDS011;9231;48.852;9.882;2022-12-18T02:21:57;13.40;;;9.17;;
18210;SDS011;9231;48.852;9.882;2022-12-18T02:24:32;12.03;;;8.80;;
18210;SDS011;9231;48.852;9.882;2022-12-18T02:27:03;13.63;;;9.27;;
18210;SDS011;9231;48.852;9.882;2022-12-18T02:29:31;13.87;;;8.90;;
18210;SDS011;9231;48.852;9.882;2022-12-18T02:32:00;12.23;;;8.93;;
18210;SDS011;9231;48.852;9.882;2022-12-18T02:34:29;11.87;;;8.33;;
18210;SDS011;9231;48.852;9.882;2022-12-18T02:36:56;11.43;;;8.50;;
18210;SDS011;9231;48.852;9.882;2022-12-18T02:39:23;12.70;;;8.60;;
18210;SDS011;9231;48.852;9.882;2022-12-18T02:41:51;13.07;;;9.00;;
18210;SDS011;9231;48.852;9.882;2022-12-18T02:44:19;12.90;;;8.50;;
18210;SDS011;9231;48.852;9.882;2022-12-18T02:46:46;11.20;;;8.33;;
18210;SDS011;9231;48.852;9.882;2022-12-18T02:49:21;11.13;;;8.13;;
18210;SDS011;9231;48.852;9.882;2022-12-18T02:51:50;10.53;;;7.83;;
18210;SDS011;9231;48.852;9.882;2022-12-18T02:54:21;11.77;;;8.27;;
18210;SDS011;9231;48.852;9.882;2022-12-18T02:56:51;10.50;;;7.47;;
18210;SDS011;9231;48.852;9.882;2022-12-18T02:59:19;12.03;;;7.90;;
18210;SDS011;9231;48.852;9.882;2022-12-18T03:01:50;12.17;;;8.17;;
18210;SDS011;9231;48.852;9.882;2022-12-18T03:04:18;10.50;;;7.60;;
18210;SDS011;9231;48.852;9.882;2022-12-18T03:06:48;11.33;;;7.80;;
18210;SDS011;9231;48.852;9.882;2022-12-18T03:09:17;11.77;;;7.90;;
18210;SDS011;9231;48.852;9.882;2022-12-18T03:11:46;10.93;;;7.93;;
18210;SDS011;9231;48.852;9.882;2022-12-18T03:14:33;11.47;;;7.53;;
18210;SDS011;9231;48.852;9.882;2022-12-18T03:17:00;9.80;;;7.43;;
18210;SDS011;9231;48.852;9.882;2022-12-18T03:19:28;11.97;;;8.00;;
18210;SDS011;9231;48.852;9.882;2022-12-18T03:21:56;10.30;;;7.37;;
18210;SDS011;9231;48.852;9.882;2022-12-18T03:24:22;10.43;;;7.63;;
18210;SDS011;9231;48.852;9.882;2022-12-18T03:26:51;11.00;;;7.80;;
18210;SDS011;9231;48.852;9.882;2022-12-18T03:29:18;10.53;;;7.60;;
18210;SDS011;9231;48.852;9.882;2022-12-18T03:31:49;9.77;;;7.47;;
18210;SDS011;9231;48.852;9.882;2022-12-18T03:34:18;11.03;;;7.70;;
18210;SDS011;9231;48.852;9.882;2022-12-18T03:36:46;9.70;;;6.87;;
18210;SDS011;9231;48.852;9.882;2022-12-18T03:39:12;9.77;;;6.50;;
18210;SDS011;9231;48.852;9.882;2022-12-18T03:41:41;9.57;;;6.90;;
18210;SDS011;9231;48.852;9.882;2022-12-18T03:44:10;9.77;;;7.27;;
18210;SDS011;9231;48.852;9.882;2022-12-18T03:46:39;9.60;;;6.90;;
18210;SDS011;9231;48.852;9.882;2022-12-18T03:49:08;11.00;;;7.40;;
18210;SDS011;9231;48.852;9.882;2022-12-18T03:51:37;9.90;;;7.43;;
18210;SDS011;9231;48.852;9.882;2022-12-18T03:54:06;10.27;;;7.30;;
18210;SDS011;9231;48.852;9.882;2022-12-18T03:56:35;10.47;;;6.77;;
18210;SDS011;9231;48.852;9.882;2022-12-18T03:59:03;10.23;;;7.20;;
18210;SDS011;9231;48.852;9.882;2022-12-18T04:01:31;9.30;;;6.93;;
18210;SDS011;9231;48.852;9.882;2022-12-18T04:04:00;9.33;;;6.80;;
18210;SDS011;9231;48.852;9.882;2022-12-18T04:06:28;9.40;;;7.07;;
18210;SDS011;9231;48.852;9.882;2022-12-18T04:08:55;8.43;;;6.27;;
18210;SDS011;9231;48.852;9.882;2022-12-18T04:11:22;8.60;;;6.60;;
18210;SDS011;9231;48.852;9.882;2022-12-18T04:13:48;9.27;;;6.53;;
18210;SDS011;9231;48.852;9.882;2022-12-18T04:16:15;9.40;;;6.60;;
18210;SDS011;9231;48.852;9.882;2022-12-18T04:18:41;8.63;;;6.57;;
18210;SDS011;9231;48.852;9.882;2022-12-18T04:21:08;9.87;;;6.60;;
18210;SDS011;9231;48.852;9.882;2022-12-18T04:23:36;8.60;;;6.17;;
18210;SDS011;9231;48.852;9.882;2022-12-18T04:26:02;8.40;;;6.13;;
18210;SDS011;9231;48.852;9.882;2022-12-18T04:28:28;9.83;;;6.43;;
18210;SDS011;9231;48.852;9.882;2022-12-18T04:30:55;9.03;;;5.80;;
18210;SDS011;9231;48.852;9.882;2022-12-18T04:33:21;7.27;;;5.27;;
18210;SDS011;9231;48.852;9.882;2022-12-18T04:35:48;8.57;;;6.10;;
18210;SDS011;9231;48.852;9.882;2022-12-18T04:38:14;9.70;;;6.73;;
18210;SDS011;9231;48.852;9.882;2022-12-18T04:40:42;8.57;;;6.03;;
18210;SDS011;9231;48.852;9.882;2022-12-18T04:43:09;8.13;;;5.87;;
18210;SDS011;9231;48.852;9.882;2022-12-18T04:45:35;9.40;;;6.07;;
18210;SDS011;9231;48.852;9.882;2022-12-18T04:48:02;8.07;;;5.63;;
18210;SDS011;9231;48.852;9.882;2022-12-18T04:50:29;11.40;;;6.93;;
18210;SDS011;9231;48.852;9.882;2022-12-18T04:52:55;8.40;;;5.43;;
18210;SDS011;9231;48.852;9.882;2022-12-18T04:55:25;7.80;;;5.33;;
18210;SDS011;9231;48.852;9.882;2022-12-18T04:57:53;8.23;;;5.40;;
18210;SDS011;9231;48.852;9.882;2022-12-18T05:00:19;8.73;;;6.37;;
18210;SDS011;9231;48.852;9.882;2022-12-18T05:02:46;7.97;;;5.93;;
18210;SDS011;9231;48.852;9.882;2022-12-18T05:05:12;7.70;;;5.83;;
18210;SDS011;9231;48.852;9.882;2022-12-18T05:07:39;7.37;;;5.67;;
18210;SDS011;9231;48.852;9.882;2022-12-18T05:10:09;7.37;;;5.37;;
18210;SDS011;9231;48.852;9.882;2022-12-18T05:12:35;8.00;;;5.77;;
18210;SDS011;9231;48.852;9.882;2022-12-18T05:15:24;7.90;;;5.63;;
18210;SDS011;9231;48.852;9.882;2022-12-18T05:17:52;8.20;;;5.63;;
18210;SDS011;9231;48.852;9.882;2022-12-18T05:20:18;6.93;;;5.03;;
18210;SDS011;9231;48.852;9.882;2022-12-18T05:22:45;8.23;;;5.83;;
18210;SDS011;9231;48.852;9.882;2022-12-18T05:25:11;8.77;;;6.10;;
18210;SDS011;9231;48.852;9.882;2022-12-18T05:27:37;7.50;;;5.47;;
18210;SDS011;9231;48.852;9.882;2022-12-18T05:30:04;8.47;;;5.80;;
18210;SDS011;9231;48.852;9.882;2022-12-18T05:32:32;8.13;;;5.23;;
18210;SDS011;9231;48.852;9.882;2022-12-18T05:34:59;7.93;;;5.10;;
18210;SDS011;9231;48.852;9.882;2022-12-18T05:37:25;6.83;;;5.53;;
18210;SDS011;9231;48.852;9.882;2022-12-18T05:39:52;7.93;;;5.37;;
18210;SDS011;9231;48.852;9.882;2022-12-18T05:42:18;7.93;;;5.33;;
18210;SDS011;9231;48.852;9.882;2022-12-18T05:44:44;8.93;;;6.07;;
18210;SDS011;9231;48.852;9.882;2022-12-18T05:47:11;7.70;;;5.87;;
18210;SDS011;9231;48.852;9.882;2022-12-18T05:49:39;7.47;;;5.13;;
18210;SDS011;9231;48.852;9.882;2022-12-18T05:52:05;7.23;;;5.07;;
18210;SDS011;9231;48.852;9.882;2022-12-18T05:54:32;8.10;;;5.17;;
18210;SDS011;9231;48.852;9.882;2022-12-18T05:56:58;8.10;;;5.00;;
18210;SDS011;9231;48.852;9.882;2022-12-18T05:59:24;7.90;;;5.47;;
18210;SDS011;9231;48.852;9.882;2022-12-18T06:01:51;8.40;;;5.70;;
18210;SDS011;9231;48.852;9.882;2022-12-18T06:04:17;7.33;;;5.03;;
18210;SDS011;9231;48.852;9.882;2022-12-18T06:06:45;8.07;;;5.00;;
18210;SDS011;9231;48.852;9.882;2022-12-18T06:09:12;7.40;;;5.33;;
18210;SDS011;9231;48.852;9.882;2022-12-18T06:11:38;7.07;;;5.50;;
18210;SDS011;9231;48.852;9.882;2022-12-18T06:14:05;6.93;;;5.20;;
18210;SDS011;9231;48.852;9.882;2022-12-18T06:16:32;6.43;;;4.77;;
18210;SDS011;9231;48.852;9.882;2022-12-18T06:18:59;7.27;;;5.27;;
18210;SDS011;9231;48.852;9.882;2022-12-18T06:21:26;6.83;;;5.03;;
18210;SDS011;9231;48.852;9.882;2022-12-18T06:23:53;6.90;;;5.37;;
18210;SDS011;9231;48.852;9.882;2022-12-18T06:26:20;6.47;;;4.97;;
18210;SDS011;9231;48.852;9.882;2022-12-18T06:28:47;7.40;;;5.17;;
18210;SDS011;9231;48.852;9.882;2022-12-18T06:31:13;7.53;;;4.67;;
18210;SDS011;9231;48.852;9.882;2022-12-18T06:33:39;8.77;;;5.63;;
18210;SDS011;9231;48.852;9.882;2022-12-18T06:36:07;7.40;;;4.97;;
18210;SDS011;9231;48.852;9.882;2022-12-18T06:38:34;6.60;;;4.73;;
18210;SDS011;9231;48.852;9.882;2022-12-18T06:41:02;6.03;;;4.43;;
18210;SDS011;9231;48.852;9.882;2022-12-18T06:43:31;6.90;;;5.03;;
18210;SDS011;9231;48.852;9.882;2022-12-18T06:46:01;6.63;;;4.70;;
18210;SDS011;9231;48.852;9.882;2022-12-18T06:48:28;7.17;;;5.03;;
18210;SDS011;9231;48.852;9.882;2022-12-18T06:50:54;6.87;;;4.87;;
18210;SDS011;9231;48.852;9.882;2022-12-18T06:53:21;7.07;;;4.63;;
18210;SDS011;9231;48.852;9.882;2022-12-18T06:55:47;7.37;;;4.97;;
18210;SDS011;9231;48.852;9.882;2022-12-18T06:58:15;7.97;;;4.73;;
18210;SDS011;9231;48.852;9.882;2022-12-18T07:00:42;7.07;;;5.20;;
18210;SDS011;9231;48.852;9.882;2022-12-18T07:03:08;6.53;;;4.97;;
18210;SDS011;9231;48.852;9.882;2022-12-18T07:05:39;6.93;;;4.87;;
18210;SDS011;9231;48.852;9.882;2022-12-18T07:08:05;8.00;;;4.87;;
18210;SDS011;9231;48.852;9.882;2022-12-18T07:10:32;8.07;;;5.10;;
18210;SDS011;9231;48.852;9.882;2022-12-18T07:12:58;6.57;;;4.80;;
18210;SDS011;9231;48.852;9.882;2022-12-18T07:15:26;8.00;;;5.73;;
18210;SDS011;9231;48.852;9.882;2022-12-18T07:17:52;7.17;;;5.07;;
18210;SDS011;9231;48.852;9.882;2022-12-18T07:20:19;7.07;;;4.67;;
18210;SDS011;9231;48.852;9.882;2022-12-18T07:22:45;6.97;;;5.00;;
18210;SDS011;9231;48.852;9.882;2022-12-18T07:25:11;8.17;;;5.10;;
18210;SDS011;9231;48.852;9.882;2022-12-18T07:27:38;8.13;;;5.13;;
18210;SDS011;9231;48.852;9.882;2022-12-18T07:30:05;7.67;;;5.70;;
18210;SDS011;9231;48.852;9.882;2022-12-18T07:32:33;8.40;;;5.70;;
18210;SDS011;9231;48.852;9.882;2022-12-18T07:34:59;6.33;;;4.27;;
18210;SDS011;9231;48.852;9.882;2022-12-18T07:37:26;10.47;;;4.83;;
18210;SDS011;9231;48.852;9.882;2022-12-18T07:39:52;9.93;;;4.83;;
18210;SDS011;9231;48.852;9.882;2022-12-18T07:42:19;8.57;;;4.90;;
18210;SDS011;9231;48.852;9.882;2022-12-18T07:44:57;6.30;;;4.20;;
18210;SDS011;9231;48.852;9.882;2022-12-18T07:47:24;6.70;;;4.10;;
18210;SDS011;9231;48.852;9.882;2022-12-18T07:49:52;6.57;;;4.23;;
18210;SDS011;9231;48.852;9.882;2022-12-18T07:52:18;6.30;;;4.23;;
18210;SDS011;9231;48.852;9.882;2022-12-18T07:54:44;6.53;;;4.43;;
18210;SDS011;9231;48.852;9.882;2022-12-18T07:57:17;6.50;;;4.40;;
18210;SDS011;9231;48.852;9.882;2022-12-18T07:59:43;8.57;;;4.37;;
18210;SDS011;9231;48.852;9.882;2022-12-18T08:02:10;7.70;;;4.27;;
18210;SDS011;9231;48.852;9.882;2022-12-18T08:04:36;6.57;;;4.37;;
18210;SDS011;9231;48.852;9.882;2022-12-18T08:07:04;6.03;;;4.03;;
18210;SDS011;9231;48.852;9.882;2022-12-18T08:09:30;6.87;;;4.67;;
18210;SDS011;9231;48.852;9.882;2022-12-18T08:11:57;5.90;;;4.27;;
18210;SDS011;9231;48.852;9.882;2022-12-18T08:14:23;6.10;;;4.33;;
18210;SDS011;9231;48.852;9.882;2022-12-18T08:16:50;6.10;;;4.23;;
18210;SDS011;9231;48.852;9.882;2022-12-18T08:19:17;10.57;;;4.40;;
18210;SDS011;9231;48.852;9.882;2022-12-18T08:21:43;7.20;;;4.57;;
18210;SDS011;9231;48.852;9.882;2022-12-18T08:24:12;7.17;;;4.80;;
18210;SDS011;9231;48.852;9.882;2022-12-18T08:26:40;5.87;;;4.23;;
18210;SDS011;9231;48.852;9.882;2022-12-18T08:29:06;5.97;;;4.13;;
18210;SDS011;9231;48.852;9.882;2022-12-18T08:31:33;6.53;;;4.60;;
18210;SDS011;9231;48.852;9.882;2022-12-18T08:33:59;7.27;;;4.07;;
18210;SDS011;9231;48.852;9.882;2022-12-18T08:36:26;5.90;;;4.30;;
18210;SDS011;9231;48.852;9.882;2022-12-18T08:38:52;6.50;;;4.50;;
18210;SDS011;9231;48.852;9.882;2022-12-18T08:41:20;7.23;;;4.33;;
18210;SDS011;9231;48.852;9.882;2022-12-18T08:43:47;8.20;;;4.73;;
18210;SDS011;9231;48.852;9.882;2022-12-18T08:46:32;6.67;;;4.53;;
18210;SDS011;9231;48.852;9.882;2022-12-18T08:48:58;6.50;;;3.87;;
18210;SDS011;9231;48.852;9.882;2022-12-18T08:51:25;5.60;;;4.13;;
18210;SDS011;9231;48.852;9.882;2022-12-18T08:53:51;7.10;;;4.40;;
18210;SDS011;9231;48.852;9.882;2022-12-18T08:56:18;8.60;;;4.20;;
18210;SDS011;9231;48.852;9.882;2022-12-18T08:58:46;5.10;;;3.80;;
18210;SDS011;9231;48.852;9.882;2022-12-18T09:01:12;7.10;;;4.40;;
18210;SDS011;9231;48.852;9.882;2022-12-18T09:03:39;6.43;;;4.40;;
18210;SDS011;9231;48.852;9.882;2022-12-18T09:06:06;6.30;;;4.13;;
18210;SDS011;9231;48.852;9.882;2022-12-18T09:08:35;5.97;;;4.40;;
18210;SDS011;9231;48.852;9.882;2022-12-18T09:11:02;6.23;;;4.47;;
18210;SDS011;9231;48.852;9.882;2022-12-18T09:13:29;7.53;;;4.47;;
18210;SDS011;9231;48.852;9.882;2022-12-18T09:15:57;5.80;;;4.20;;
18210;SDS011;9231;48.852;9.882;2022-12-18T09:18:23;5.70;;;4.20;;
18210;SDS011;9231;48.852;9.882;2022-12-18T09:20:50;6.33;;;4.10;;
18210;SDS011;9231;48.852;9.882;2022-12-18T09:23:18;5.17;;;3.87;;
18210;SDS011;9231;48.852;9.882;2022-12-18T09:25:44;6.67;;;3.97;;
18210;SDS011;9231;48.852;9.882;2022-12-18T09:30:48;5.70;;;3.83;;
18210;SDS011;9231;48.852;9.882;2022-12-18T09:33:19;6.13;;;3.93;;
18210;SDS011;9231;48.852;9.882;2022-12-18T09:35:49;6.33;;;4.13;;
18210;SDS011;9231;48.852;9.882;2022-12-18T09:38:16;6.77;;;4.27;;
18210;SDS011;9231;48.852;9.882;2022-12-18T09:40:43;5.97;;;4.30;;
18210;SDS011;9231;48.852;9.882;2022-12-18T09:43:13;6.70;;;4.47;;
18210;SDS011;9231;48.852;9.882;2022-12-18T09:45:49;6.57;;;4.37;;
18210;SDS011;9231;48.852;9.882;2022-12-18T09:48:18;5.90;;;4.07;;
18210;SDS011;9231;48.852;9.882;2022-12-18T09:50:47;6.57;;;4.13;;
18210;SDS011;9231;48.852;9.882;2022-12-18T09:53:15;5.77;;;3.87;;
18210;SDS011;9231;48.852;9.882;2022-12-18T09:55:44;5.73;;;4.27;;
18210;SDS011;9231;48.852;9.882;2022-12-18T09:58:13;5.53;;;3.97;;
18210;SDS011;9231;48.852;9.882;2022-12-18T10:00:43;7.00;;;4.13;;
18210;SDS011;9231;48.852;9.882;2022-12-18T10:03:10;6.87;;;4.13;;
18210;SDS011;9231;48.852;9.882;2022-12-18T10:05:38;5.40;;;4.17;;
18210;SDS011;9231;48.852;9.882;2022-12-18T10:08:10;7.20;;;3.77;;
18210;SDS011;9231;48.852;9.882;2022-12-18T10:10:40;7.93;;;4.00;;
18210;SDS011;9231;48.852;9.882;2022-12-18T10:13:10;6.07;;;4.20;;
18210;SDS011;9231;48.852;9.882;2022-12-18T10:15:45;6.77;;;3.90;;
18210;SDS011;9231;48.852;9.882;2022-12-18T10:18:17;5.63;;;3.33;;
18210;SDS011;9231;48.852;9.882;2022-12-18T10:20:48;5.80;;;4.30;;
18210;SDS011;9231;48.852;9.882;2022-12-18T10:23:17;6.60;;;4.30;;
18210;SDS011;9231;48.852;9.882;2022-12-18T10:25:49;5.50;;;4.27;;
18210;SDS011;9231;48.852;9.882;2022-12-18T10:28:17;5.90;;;4.00;;
18210;SDS011;9231;48.852;9.882;2022-12-18T10:30:44;6.27;;;4.60;;
18210;SDS011;9231;48.852;9.882;2022-12-18T10:33:10;5.80;;;3.97;;
18210;SDS011;9231;48.852;9.882;2022-12-18T10:35:38;4.70;;;3.73;;
18210;SDS011;9231;48.852;9.882;2022-12-18T10:38:07;5.23;;;4.00;;
18210;SDS011;9231;48.852;9.882;2022-12-18T10:40:51;5.27;;;3.73;;
18210;SDS011;9231;48.852;9.882;2022-12-18T10:43:22;6.90;;;4.33;;
18210;SDS011;9231;48.852;9.882;2022-12-18T10:45:58;6.30;;;3.90;;
18210;SDS011;9231;48.852;9.882;2022-12-18T10:48:25;5.10;;;4.00;;
18210;SDS011;9231;48.852;9.882;2022-12-18T10:50:51;6.10;;;4.03;;
18210;SDS011;9231;48.852;9.882;2022-12-18T10:53:19;4.60;;;3.67;;
18210;SDS011;9231;48.852;9.882;2022-12-18T10:55:45;5.00;;;3.70;;
18210;SDS011;9231;48.852;9.882;2022-12-18T10:58:15;5.00;;;3.67;;
18210;SDS011;9231;48.852;9.882;2022-12-18T11:00:42;6.27;;;3.83;;
18210;SDS011;9231;48.852;9.882;2022-12-18T11:03:28;5.33;;;3.80;;
18210;SDS011;9231;48.852;9.882;2022-12-18T11:06:00;5.70;;;4.00;;
18210;SDS011;9231;48.852;9.882;2022-12-18T11:08:27;5.40;;;3.63;;
18210;SDS011;9231;48.852;9.882;2022-12-18T11:10:54;5.33;;;3.90;;
18210;SDS011;9231;48.852;9.882;2022-12-18T11:13:22;5.77;;;3.97;;
18210;SDS011;9231;48.852;9.882;2022-12-18T11:15:49;6.97;;;4.10;;
18210;SDS011;9231;48.852;9.882;2022-12-18T11:18:16;4.80;;;3.53;;
18210;SDS011;9231;48.852;9.882;2022-12-18T11:20:43;4.63;;;3.73;;
18210;SDS011;9231;48.852;9.882;2022-12-18T11:23:16;4.40;;;3.50;;
18210;SDS011;9231;48.852;9.882;2022-12-18T11:25:49;3.67;;;2.90;;
18210;SDS011;9231;48.852;9.882;2022-12-18T11:28:26;4.73;;;3.67;;
18210;SDS011;9231;48.852;9.882;2022-12-18T11:31:08;5.03;;;3.73;;
18210;SDS011;9231;48.852;9.882;2022-12-18T11:33:35;4.93;;;3.70;;
18210;SDS011;9231;48.852;9.882;2022-12-18T11:36:03;5.97;;;4.13;;
18210;SDS011;9231;48.852;9.882;2022-12-18T11:38:32;5.40;;;3.97;;
18210;SDS011;9231;48.852;9.882;2022-12-18T11:41:00;5.27;;;3.60;;
18210;SDS011;9231;48.852;9.882;2022-12-18T11:43:30;8.10;;;4.60;;
18210;SDS011;9231;48.852;9.882;2022-12-18T11:45:59;4.20;;;3.57;;
18210;SDS011;9231;48.852;9.882;2022-12-18T11:48:27;4.57;;;3.47;;
18210;SDS011;9231;48.852;9.882;2022-12-18T11:50:55;5.07;;;4.23;;
18210;SDS011;9231;48.852;9.882;2022-12-18T11:53:22;5.67;;;3.87;;
18210;SDS011;9231;48.852;9.882;2022-12-18T11:55:51;5.93;;;3.73;;
18210;SDS011;9231;48.852;9.882;2022-12-18T11:58:21;5.53;;;3.93;;
18210;SDS011;9231;48.852;9.882;2022-12-18T12:00:53;5.33;;;4.00;;
18210;SDS011;9231;48.852;9.882;2022-12-18T12:03:24;5.23;;;3.37;;
18210;SDS011;9231;48.852;9.882;2022-12-18T12:05:57;6.07;;;4.10;;
18210;SDS011;9231;48.852;9.882;2022-12-18T12:08:27;5.23;;;3.93;;
18210;SDS011;9231;48.852;9.882;2022-12-18T12:11:00;5.80;;;4.10;;
18210;SDS011;9231;48.852;9.882;2022-12-18T12:13:32;5.60;;;3.67;;
18210;SDS011;9231;48.852;9.882;2022-12-18T12:16:09;6.17;;;4.03;;
18210;SDS011;9231;48.852;9.882;2022-12-18T12:18:41;6.30;;;4.00;;
18210;SDS011;9231;48.852;9.882;2022-12-18T12:21:10;4.93;;;3.60;;
18210;SDS011;9231;48.852;9.882;2022-12-18T12:23:40;5.80;;;3.63;;
18210;SDS011;9231;48.852;9.882;2022-12-18T12:26:10;6.17;;;3.70;;
18210;SDS011;9231;48.852;9.882;2022-12-18T12:28:45;6.03;;;3.63;;
18210;SDS011;9231;48.852;9.882;2022-12-18T12:31:18;5.80;;;3.57;;
18210;SDS011;9231;48.852;9.882;2022-12-18T12:33:51;6.00;;;3.67;;
18210;SDS011;9231;48.852;9.882;2022-12-18T12:36:20;7.13;;;3.80;;
18210;SDS011;9231;48.852;9.882;2022-12-18T12:38:51;5.47;;;3.67;;
18210;SDS011;9231;48.852;9.882;2022-12-18T12:41:20;5.03;;;3.70;;
18210;SDS011;9231;48.852;9.882;2022-12-18T12:44:06;5.17;;;3.83;;
18210;SDS011;9231;48.852;9.882;2022-12-18T12:46:36;5.90;;;4.17;;
18210;SDS011;9231;48.852;9.882;2022-12-18T12:49:05;4.57;;;3.67;;
18210;SDS011;9231;48.852;9.882;2022-12-18T12:51:36;5.03;;;4.00;;
18210;SDS011;9231;48.852;9.882;2022-12-18T12:54:04;6.17;;;4.03;;
18210;SDS011;9231;48.852;9.882;2022-12-18T12:56:36;4.90;;;3.80;;
18210;SDS011;9231;48.852;9.882;2022-12-18T12:59:09;4.83;;;3.70;;
18210;SDS011;9231;48.852;9.882;2022-12-18T13:01:40;4.90;;;3.93;;
18210;SDS011;9231;48.852;9.882;2022-12-18T13:04:14;4.70;;;3.70;;
18210;SDS011;9231;48.852;9.882;2022-12-18T13:06:43;5.07;;;3.80;;
18210;SDS011;9231;48.852;9.882;2022-12-18T13:09:12;6.00;;;3.93;;
18210;SDS011;9231;48.852;9.882;2022-12-18T13:11:39;5.30;;;3.73;;
18210;SDS011;9231;48.852;9.882;2022-12-18T13:14:24;5.03;;;3.67;;
18210;SDS011;9231;48.852;9.882;2022-12-18T13:16:56;4.30;;;3.40;;
18210;SDS011;9231;48.852;9.882;2022-12-18T13:19:40;5.80;;;3.57;;
18210;SDS011;9231;48.852;9.882;2022-12-18T13:22:12;5.70;;;3.93;;
18210;SDS011;9231;48.852;9.882;2022-12-18T13:24:46;5.03;;;4.10;;
18210;SDS011;9231;48.852;9.882;2022-12-18T13:29:54;6.37;;;4.17;;
18210;SDS011;9231;48.852;9.882;2022-12-18T13:32:22;4.77;;;4.03;;
18210;SDS011;9231;48.852;9.882;2022-12-18T13:34:51;5.43;;;4.00;;
18210;SDS011;9231;48.852;9.882;2022-12-18T13:37:41;4.57;;;3.77;;
18210;SDS011;9231;48.852;9.882;2022-12-18T13:42:53;6.27;;;4.40;;
18210;SDS011;9231;48.852;9.882;2022-12-18T13:45:43;6.10;;;3.90;;
18210;SDS011;9231;48.852;9.882;2022-12-18T13:48:16;6.37;;;4.00;;
18210;SDS011;9231;48.852;9.882;2022-12-18T13:50:42;5.80;;;4.40;;
18210;SDS011;9231;48.852;9.882;2022-12-18T13:53:11;6.43;;;4.00;;
18210;SDS011;9231;48.852;9.882;2022-12-18T13:55:45;5.40;;;4.23;;
18210;SDS011;9231;48.852;9.882;2022-12-18T13:58:12;5.30;;;3.93;;
18210;SDS011;9231;48.852;9.882;2022-12-18T14:00:41;5.10;;;4.00;;
18210;SDS011;9231;48.852;9.882;2022-12-18T14:03:17;6.10;;;4.17;;
18210;SDS011;9231;48.852;9.882;2022-12-18T14:05:44;4.30;;;3.57;;
18210;SDS011;9231;48.852;9.882;2022-12-18T14:08:12;5.67;;;3.97;;
18210;SDS011;9231;48.852;9.882;2022-12-18T14:10:39;6.23;;;4.13;;
18210;SDS011;9231;48.852;9.882;2022-12-18T14:13:06;6.77;;;4.60;;
18210;SDS011;9231;48.852;9.882;2022-12-18T14:15:35;5.43;;;4.07;;
18210;SDS011;9231;48.852;9.882;2022-12-18T14:18:03;4.53;;;3.63;;
18210;SDS011;9231;48.852;9.882;2022-12-18T14:20:41;5.87;;;4.00;;
18210;SDS011;9231;48.852;9.882;2022-12-18T14:25:50;7.50;;;4.80;;
18210;SDS011;9231;48.852;9.882;2022-12-18T14:28:17;4.53;;;3.73;;
18210;SDS011;9231;48.852;9.882;2022-12-18T14:30:44;6.25;;;4.78;;
18210;SDS011;9231;48.852;9.882;2022-12-18T14:33:12;6.60;;;4.20;;
18210;SDS011;9231;48.852;9.882;2022-12-18T14:35:39;5.47;;;3.87;;
18210;SDS011;9231;48.852;9.882;2022-12-18T14:38:14;5.47;;;4.07;;
18210;SDS011;9231;48.852;9.882;2022-12-18T14:40:44;6.00;;;3.90;;
18210;SDS011;9231;48.852;9.882;2022-12-18T14:43:10;5.67;;;3.77;;
18210;SDS011;9231;48.852;9.882;2022-12-18T14:45:40;6.47;;;4.00;;
18210;SDS011;9231;48.852;9.882;2022-12-18T14:48:07;6.30;;;4.07;;
18210;SDS011;9231;48.852;9.882;2022-12-18T14:50:34;6.20;;;4.20;;
18210;SDS011;9231;48.852;9.882;2022-12-18T14:53:01;5.00;;;3.80;;
18210;SDS011;9231;48.852;9.882;2022-12-18T14:55:29;6.60;;;3.87;;
18210;SDS011;9231;48.852;9.882;2022-12-18T14:57:56;5.70;;;4.20;;
18210;SDS011;9231;48.852;9.882;2022-12-18T15:00:23;4.07;;;3.40;;
18210;SDS011;9231;48.852;9.882;2022-12-18T15:02:50;5.00;;;3.87;;
18210;SDS011;9231;48.852;9.882;2022-12-18T15:05:19;6.00;;;4.17;;
18210;SDS011;9231;48.852;9.882;2022-12-18T15:07:46;5.67;;;4.33;;
18210;SDS011;9231;48.852;9.882;2022-12-18T15:10:13;4.70;;;3.60;;
18210;SDS011;9231;48.852;9.882;2022-12-18T15:12:42;5.20;;;3.70;;
18210;SDS011;9231;48.852;9.882;2022-12-18T15:17:56;6.63;;;3.80;;
18210;SDS011;9231;48.852;9.882;2022-12-18T15:20:22;5.80;;;4.07;;
18210;SDS011;9231;48.852;9.882;2022-12-18T15:22:49;6.07;;;4.17;;